Old Milo, Arkansas
Current Conditions -  °F | °C
As of 11:55 AM on Tuesday 21 Oct 2014 (Local Time) from KBQP Reporting Station
Broken Clouds Broken Clouds  
Wind Chill: 74°   Ceiling: 4900
Heat Index: 74°   Visibility: 10mi
Dew Point: 58°   Wind: 3mph
Humidity: 57%   Direction: 350°N
Pressure: 30.12"   Gusts: NA
Location:  33.1762°N, 91.7595°W
Report Text: KBQP 211655Z AUTO 35003KT 10SM BKN049 23/14 A3012 RMK AO2 T02330144
Loading
Personal Weather Stations






























Interactive Weather Map New forecast layout! Learn more

10-Day Weather Forecast

Advertisements
Track Severe Weather on mobile